Time;durP1;ratioP1;P1;durP2;ratioP2;P2;SDS_P1;SDS_P2;PMS_P1;PMS_P2;Temp;Humidity;BMP_temperature;BMP_pressure;BME280_temperature;BME280_humidity;BME280_pressure;Samples;Min_cycle;Max_cycle;Signal;HPM_P1;HPM_P2
2022/09/20 00:00:12;;;;;;;;;;;;;;;21.64;58.02;99483.47;7314393;19;129163;-37
2022/09/20 00:02:37;;;;;;;;;;;;;;;21.73;57.64;99498.28;7315217;19;130068;-37
2022/09/20 00:05:03;;;;;;;;;;;;;;;21.71;57.31;99486.34;7314640;19;130498;-37
2022/09/20 00:07:28;;;;;;;;;;;;;;;21.71;57.84;99497.63;7315119;19;129122;-37
2022/09/20 00:09:54;;;;;;;;;;;;;;;21.74;57.63;99504.34;7314265;19;129834;-38
2022/09/20 00:12:19;;;;;;;;;;;;;;;21.74;57.32;99505.19;7308812;19;129494;-37
2022/09/20 00:14:44;;;;;;;;;;;;;;;21.72;57.73;99514.97;7311784;19;130660;-37
2022/09/20 00:17:09;;;;;;;;;;;;;;;21.70;58.11;99498.56;7310585;19;131061;-38
2022/09/20 00:19:35;;;;;;;;;;;;;;;21.69;57.54;99502.19;7313364;19;129053;-37
2022/09/20 00:22:00;;;;;;;;;;;;;;;21.72;57.91;99506.28;7309585;19;129569;-37
2022/09/20 00:24:25;;;;;;;;;;;;;;;21.70;57.28;99503.00;7309203;19;129627;-37
2022/09/20 00:26:51;;;;;;;;;;;;;;;21.70;58.21;99503.81;7311229;19;130501;-37
2022/09/20 00:29:16;;;;;;;;;;;;;;;21.70;58.18;99509.03;7310810;19;129287;-38
2022/09/20 00:31:41;;;;;;;;;;;;;;;21.71;58.08;99500.25;7309807;19;130496;-37
2022/09/20 00:36:52;;;;;;;;;;;;;;;21.70;57.61;99503.00;7309602;19;129914;-38
2022/09/20 00:39:17;;;;;;;;;;;;;;;21.71;57.88;99499.41;7312747;19;129608;-37
2022/09/20 00:41:42;;;;;;;;;;;;;;;21.68;57.74;99495.28;7311158;19;129778;-38
2022/09/20 00:44:26;;;;;;;;;;;;;;;21.66;57.56;99496.41;7310796;19;130018;-38
2022/09/20 00:46:51;;;;;;;;;;;;;;;21.70;57.60;99497.78;7310603;19;131322;-37
2022/09/20 00:49:22;;;;;;;;;;;;;;;21.66;57.59;99496.41;7312149;19;128898;-37
2022/09/20 00:51:50;;;;;;;;;;;;;;;21.69;57.87;99510.03;7307528;19;130008;-38
2022/09/20 00:54:17;;;;;;;;;;;;;;;21.66;58.03;99505.09;7309123;19;130036;-38
2022/09/20 00:56:43;;;;;;;;;;;;;;;21.64;57.47;99514.84;7314180;19;130341;-37
2022/09/20 00:59:17;;;;;;;;;;;;;;;21.66;57.69;99505.09;7312623;19;129454;-37
2022/09/20 01:01:45;;;;;;;;;;;;;;;21.68;58.30;99512.78;7308308;19;129905;-38
2022/09/20 01:04:13;;;;;;;;;;;;;;;21.68;58.15;99495.28;7312566;19;130463;-37
2022/09/20 01:06:38;;;;;;;;;;;;;;;21.69;57.88;99507.41;7307623;19;130738;-37
2022/09/20 01:09:04;;;;;;;;;;;;;;;21.69;58.33;99507.41;7122554;19;3622027;-37
2022/09/20 01:11:29;;;;;;;;;;;;;;;21.69;58.45;99512.63;7314158;19;129432;-38
2022/09/20 01:13:55;;;;;;;;;;;;;;;21.69;57.96;99512.63;7313975;19;129268;-38
2022/09/20 01:16:21;;;;;;;;;;;;;;;21.69;57.50;99512.63;7313746;19;128971;-37
2022/09/20 01:18:47;;;;;;;;;;;;;;;21.70;57.81;99505.63;7314543;19;129136;-37
2022/09/20 01:21:12;;;;;;;;;;;;;;;21.69;58.02;99504.78;7309768;19;129081;-38
2022/09/20 01:23:56;;;;;;;;;;;;;;;21.64;58.03;99499.16;7312324;19;129909;-37
2022/09/20 01:26:36;;;;;;;;;;;;;;;21.68;58.27;99510.97;7311749;19;130319;-38
2022/09/20 01:29:04;;;;;;;;;;;;;;;21.60;57.92;99508.25;7312451;19;130708;-37
2022/09/20 01:31:34;;;;;;;;;;;;;;;21.65;58.09;99502.59;7309895;19;129204;-37
2022/09/20 01:34:00;;;;;;;;;;;;;;;21.65;58.56;99505.22;7311930;19;130753;-37
2022/09/20 01:36:35;;;;;;;;;;;;;;;21.66;58.17;99502.47;7313428;19;129526;-37
2022/09/20 01:39:06;;;;;;;;;;;;;;;21.68;58.50;99497.09;7313300;19;128818;-37
2022/09/20 01:41:32;;;;;;;;;;;;;;;21.58;57.70;99488.44;7309305;19;129988;-38
2022/09/20 01:44:00;;;;;;;;;;;;;;;21.70;57.71;99503.81;7314080;19;129610;-37
2022/09/20 01:46:32;;;;;;;;;;;;;;;21.71;57.67;99502.88;7309017;19;130101;-37
2022/09/20 01:49:18;;;;;;;;;;;;;;;21.72;57.56;99503.66;7312989;19;131183;-37
2022/09/20 01:52:02;;;;;;;;;;;;;;;21.70;57.75;99498.56;7310708;19;129245;-37
2022/09/20 01:54:46;;;;;;;;;;;;;;;21.68;58.38;99497.88;7312492;19;130318;-37
2022/09/20 01:57:30;;;;;;;;;;;;;;;21.58;57.37;99489.28;7312951;19;129030;-36
2022/09/20 01:59:58;;;;;;;;;;;;;;;21.68;57.99;99510.97;7311459;19;129439;-37
2022/09/20 02:02:27;;;;;;;;;;;;;;;21.63;58.20;99502.75;7307781;19;129230;-37
2022/09/20 02:04:55;;;;;;;;;;;;;;;21.65;58.53;99500.78;7311792;19;130692;-37
2022/09/20 02:07:37;;;;;;;;;;;;;;;21.66;58.34;99501.63;7313610;19;129697;-37
2022/09/20 02:10:21;;;;;;;;;;;;;;;21.67;58.34;99508.50;7310920;19;129883;-37
2022/09/20 02:12:54;;;;;;;;;;;;;;;21.68;57.90;99510.16;7311232;19;129218;-38
2022/09/20 02:15:20;;;;;;;;;;;;;;;21.68;57.96;99508.34;7312304;19;129457;-37
2022/09/20 02:17:54;;;;;;;;;;;;;;;21.70;58.06;99516.09;7312790;19;129624;-38
2022/09/20 02:20:19;;;;;;;;;;;;;;;21.70;57.68;99506.44;7311790;19;129132;-38
2022/09/20 02:22:55;;;;;;;;;;;;;;;21.69;57.63;99514.41;7311178;19;130506;-37
2022/09/20 02:25:23;;;;;;;;;;;;;;;21.69;58.04;99515.25;7310478;19;130303;-37
2022/09/20 02:27:52;;;;;;;;;;;;;;;21.72;58.51;99507.13;7310830;19;129129;-38
2022/09/20 02:30:36;;;;;;;;;;;;;;;21.71;57.63;99515.13;7307005;19;129843;-37
2022/09/20 02:33:02;;;;;;;;;;;;;;;21.69;57.56;99512.63;7312026;19;130298;-37
2022/09/20 02:35:39;;;;;;;;;;;;;;;21.71;57.95;99517.72;7312597;19;129172;-37
2022/09/20 02:38:07;;;;;;;;;;;;;;;21.69;58.22;99512.63;7312441;19;129351;-37
2022/09/20 02:40:51;;;;;;;;;;;;;;;21.70;57.98;99519.50;7312068;19;131694;-37
2022/09/20 02:43:35;;;;;;;;;;;;;;;21.45;57.81;99508.84;7309662;19;129647;-37
2022/09/20 02:46:07;;;;;;;;;;;;;;;21.53;58.20;99517.66;7308095;19;129383;-37
2022/09/20 02:48:42;;;;;;;;;;;;;;;21.58;57.79;99530.28;7309484;19;130233;-37
2022/09/20 02:51:16;;;;;;;;;;;;;;;21.63;58.54;99525.47;7310215;19;129063;-37
2022/09/20 02:53:47;;;;;;;;;;;;;;;21.62;57.82;99537.72;7309220;19;129848;-38
2022/09/20 02:56:23;;;;;;;;;;;;;;;21.65;58.22;99529.56;7311327;19;129428;-37
2022/09/20 02:59:07;;;;;;;;;;;;;;;21.66;58.05;99533.88;7310251;19;129915;-37
2022/09/20 03:01:41;;;;;;;;;;;;;;;21.67;57.74;99529.44;7308257;19;129046;-38
2022/09/20 03:04:09;;;;;;;;;;;;;;;21.68;58.12;99541.56;7311307;19;130101;-38
2022/09/20 03:06:47;;;;;;;;;;;;;;;21.69;58.35;99541.41;7310819;19;131011;-37
2022/09/20 03:09:47;;;;;;;;;;;;;;;21.70;57.89;99539.66;7309708;19;128918;-37
2022/09/20 03:12:20;;;;;;;;;;;;;;;21.73;58.17;99539.34;7303857;19;129782;-37
2022/09/20 03:14:51;;;;;;;;;;;;;;;21.71;57.98;99547.34;7309380;19;129559;-38
2022/09/20 03:17:35;;;;;;;;;;;;;;;21.69;58.30;99543.19;7310158;19;130214;-38
2022/09/20 03:20:08;;;;;;;;;;;;;;;21.69;57.86;99549.28;7312191;19;129134;-38
2022/09/20 03:22:36;;;;;;;;;;;;;;;21.68;57.50;99546.81;7308848;19;130391;-37
2022/09/20 03:25:13;;;;;;;;;;;;;;;21.66;57.71;99544.31;7306411;19;129708;-38
2022/09/20 03:27:45;;;;;;;;;;;;;;;21.68;58.16;99547.59;7297561;19;131819;-37
2022/09/20 03:30:19;;;;;;;;;;;;;;;21.69;57.81;99553.66;7308329;19;129725;-38
2022/09/20 03:32:59;;;;;;;;;;;;;;;21.68;57.50;99550.22;7309595;19;129447;-38
2022/09/20 03:35:35;;;;;;;;;;;;;;;21.68;58.17;99542.38;7299775;19;129377;-37
2022/09/20 03:38:00;;;;;;;;;;;;;;;21.69;58.00;99551.88;7299867;19;130336;-37
2022/09/20 03:40:35;;;;;;;;;;;;;;;21.69;58.10;99548.44;7298281;19;129106;-37
2022/09/20 03:43:09;;;;;;;;;;;;;;;21.66;58.17;99549.56;7305238;19;131084;-38
2022/09/20 03:46:07;;;;;;;;;;;;;;;21.66;58.08;99541.72;7299558;19;130467;-37
2022/09/20 03:48:40;;;;;;;;;;;;;;;21.70;58.18;99548.28;7296762;19;131422;-37
2022/09/20 03:51:24;;;;;;;;;;;;;;;21.73;58.01;99547.19;7301215;19;130283;-38
2022/09/20 03:53:52;;;;;;;;;;;;;;;21.72;57.86;99548.97;7300051;19;130362;-38
2022/09/20 03:56:47;;;;;;;;;;;;;;;21.72;58.01;99548.97;7299703;19;131029;-37
2022/09/20 03:59:27;;;;;;;;;;;;;;;21.75;57.77;99561.78;7302378;19;131114;-37
2022/09/20 04:02:08;;;;;;;;;;;;;;;21.76;58.22;99555.63;7304081;19;130602;-37
2022/09/20 04:04:39;;;;;;;;;;;;;;;21.77;57.98;99552.03;7305007;19;130552;-37
2022/09/20 04:07:23;;;;;;;;;;;;;;;21.70;57.50;99550.91;7303913;19;131062;-37
2022/09/20 04:09:54;;;;;;;;;;;;;;;21.78;57.37;99566.75;7304226;19;131055;-38
2022/09/20 04:12:26;;;;;;;;;;;;;;;21.76;57.75;99560.88;7305601;19;129158;-37
2022/09/20 04:15:06;;;;;;;;;;;;;;;21.77;57.65;99562.50;7309856;19;130827;-38
2022/09/20 04:17:50;;;;;;;;;;;;;;;21.77;58.08;99567.72;7317345;19;129144;-37
2022/09/20 04:20:53;;;;;;;;;;;;;;;21.76;57.86;99568.72;7306847;19;130477;-37
2022/09/20 04:23:31;;;;;;;;;;;;;;;21.71;57.42;99554.38;7302538;19;131614;-38
2022/09/20 04:25:57;;;;;;;;;;;;;;;21.78;57.64;99573.81;7301930;19;129667;-37
2022/09/20 04:28:29;;;;;;;;;;;;;;;21.77;57.61;99572.13;7312165;19;129684;-37
2022/09/20 04:30:58;;;;;;;;;;;;;;;21.79;57.41;99578.91;7304804;19;130619;-37
2022/09/20 04:33:27;;;;;;;;;;;;;;;21.77;57.73;99565.13;7314376;19;130106;-37
2022/09/20 04:36:28;;;;;;;;;;;;;;;21.79;57.86;99573.66;7304534;19;129682;-37
2022/09/20 04:39:00;;;;;;;;;;;;;;;21.80;57.61;99577.91;7306328;19;131412;-37
2022/09/20 04:41:48;;;;;;;;;;;;;;;21.81;57.17;99581.38;7311059;19;130453;-37
2022/09/20 04:44:34;;;;;;;;;;;;;;;21.73;57.20;99571.56;7314375;19;129067;-38
2022/09/20 04:46:59;;;;;;;;;;;;;;;21.76;57.44;99579.19;7312763;19;129981;-37
2022/09/20 04:49:24;;;;;;;;;;;;;;;21.76;57.99;99589.66;7313224;19;129551;-37
2022/09/20 04:52:02;;;;;;;;;;;;;;;21.78;57.61;99590.31;7309752;19;129206;-37
2022/09/20 04:54:40;;;;;;;;;;;;;;;21.79;57.40;99581.50;7312214;19;129947;-38
2022/09/20 04:57:05;;;;;;;;;;;;;;;21.78;57.44;99592.13;7314387;19;129150;-37
2022/09/20 04:59:53;;;;;;;;;;;;;;;21.77;57.56;99590.44;7313574;19;129403;-37
2022/09/20 05:02:27;;;;;;;;;;;;;;;21.76;57.53;99584.41;7305977;19;129860;-37
2022/09/20 05:04:59;;;;;;;;;;;;;;;21.75;57.50;99598.41;7310171;19;129361;-38
2022/09/20 05:07:43;;;;;;;;;;;;;;;21.76;57.80;99597.50;7310404;19;130203;-38
2022/09/20 05:10:24;;;;;;;;;;;;;;;21.69;57.42;99583.28;7306522;19;129092;-38
2022/09/20 05:12:53;;;;;;;;;;;;;;;21.80;57.51;99593.63;7302879;19;130851;-38
2022/09/20 05:15:22;;;;;;;;;;;;;;;21.77;57.85;99596.53;7305235;19;131828;-37
2022/09/20 05:17:53;;;;;;;;;;;;;;;21.78;57.72;99603.41;7304118;19;130054;-38
2022/09/20 05:20:24;;;;;;;;;;;;;;;21.77;57.77;99596.53;7303599;19;130167;-37
2022/09/20 05:22:58;;;;;;;;;;;;;;;21.74;57.41;99602.00;7307186;19;129192;-37
2022/09/20 05:25:32;;;;;;;;;;;;;;;21.75;57.78;99601.03;7312468;19;128967;-38
2022/09/20 05:28:04;;;;;;;;;;;;;;;21.76;58.07;99597.50;7314887;19;129135;-37
2022/09/20 05:30:39;;;;;;;;;;;;;;;21.78;57.84;99606.00;7313363;19;130057;-37
2022/09/20 05:33:20;;;;;;;;;;;;;;;21.74;57.22;99604.63;7305525;19;129937;-38
2022/09/20 05:35:47;;;;;;;;;;;;;;;21.66;57.31;99606.28;7307336;19;130613;-37
2022/09/20 05:38:18;;;;;;;;;;;;;;;21.68;57.86;99610.41;7313991;19;129201;-37
2022/09/20 05:41:02;;;;;;;;;;;;;;;21.60;57.04;99599.81;7313351;19;130216;-38
2022/09/20 05:43:31;;;;;;;;;;;;;;;21.58;56.75;99614.84;7312919;19;129883;-37
2022/09/20 05:46:20;;;;;;;;;;;;;;;21.50;56.51;99622.53;7312980;19;128904;-38
2022/09/20 05:48:57;;;;;;;;;;;;;;;21.52;56.57;99620.63;7303113;19;130338;-37
2022/09/20 05:51:23;;;;;;;;;;;;;;;21.49;56.70;99625.28;7308796;19;129367;-38
2022/09/20 05:54:21;;;;;;;;;;;;;;;21.45;56.74;99627.34;7305399;19;130059;-37
2022/09/20 05:56:58;;;;;;;;;;;;;;;21.49;56.99;99631.34;7302748;19;131058;-38
2022/09/20 05:59:36;;;;;;;;;;;;;;;21.49;56.61;99626.13;7304981;19;129156;-38
2022/09/20 06:02:10;;;;;;;;;;;;;;;21.51;56.88;99629.44;7300928;19;130355;-38
2022/09/20 06:04:49;;;;;;;;;;;;;;;21.46;56.06;99634.25;7302420;19;129427;-37
2022/09/20 06:07:14;;;;;;;;;;;;;;;21.46;56.76;99639.47;7301037;19;129012;-37
2022/09/20 06:09:42;;;;;;;;;;;;;;;21.45;56.92;99637.81;7303088;19;130522;-38
2022/09/20 06:12:19;;;;;;;;;;;;;;;21.43;56.73;99647.63;7300903;19;130897;-37
2022/09/20 06:14:51;;;;;;;;;;;;;;;21.42;56.46;99645.94;7302022;19;131165;-38
2022/09/20 06:17:26;;;;;;;;;;;;;;;21.44;55.98;99641.41;7303478;19;129616;-38
2022/09/20 06:19:51;;;;;;;;;;;;;;;21.41;56.86;99648.69;7302588;19;130310;-37
2022/09/20 06:22:36;;;;;;;;;;;;;;;21.45;56.70;99648.28;7305808;19;130316;-38
2022/09/20 06:25:07;;;;;;;;;;;;;;;21.43;57.07;99649.41;7302840;19;131254;-37
2022/09/20 06:27:41;;;;;;;;;;;;;;;21.48;57.03;99648.03;7301996;19;130577;-37
2022/09/20 06:30:14;;;;;;;;;;;;;;;21.43;56.09;99650.22;7311603;19;129791;-38
2022/09/20 06:32:58;;;;;;;;;;;;;;;21.47;56.40;99654.19;7310383;19;131902;-37
2022/09/20 06:35:25;;;;;;;;;;;;;;;21.44;56.24;99654.47;7305173;19;129387;-37
2022/09/20 06:43:34;;;;;;;;;;;;;;;21.45;56.01;99655.31;7312402;19;129692;-37
2022/09/20 06:45:59;;;;;;;;;;;;;;;21.46;56.44;99652.56;7308820;19;129444;-37
2022/09/20 06:48:25;;;;;;;;;;;;;;;21.45;55.89;99658.75;7313572;19;129422;-37
2022/09/20 06:50:51;;;;;;;;;;;;;;;21.38;56.38;99660.28;7303968;19;131707;-38
2022/09/20 06:53:23;;;;;;;;;;;;;;;21.40;55.98;99658.31;7302917;19;131198;-38
2022/09/20 06:55:50;;;;;;;;;;;;;;;21.39;55.78;99651.44;7309124;19;129929;-38
2022/09/20 06:58:15;;;;;;;;;;;;;;;21.41;56.36;99654.75;7312923;19;129912;-38
2022/09/20 07:00:40;;;;;;;;;;;;;;;21.41;56.15;99660.00;7312341;19;129454;-38
2022/09/20 07:03:06;;;;;;;;;;;;;;;21.41;56.19;99659.16;7311432;19;130099;-37
2022/09/20 07:05:31;;;;;;;;;;;;;;;21.39;56.05;99667.16;7302275;19;129635;-38
2022/09/20 07:07:57;;;;;;;;;;;;;;;21.39;55.81;99672.38;7299996;19;129907;-37
2022/09/20 07:10:22;;;;;;;;;;;;;;;21.42;56.31;99677.31;7300373;19;130377;-37
2022/09/20 07:12:48;;;;;;;;;;;;;;;21.38;56.61;99675.97;7301008;19;130792;-38
2022/09/20 07:15:15;;;;;;;;;;;;;;;21.38;55.86;99670.72;7301328;19;129851;-38
2022/09/20 07:17:43;;;;;;;;;;;;;;;21.41;56.45;99674.84;7301948;19;131345;-37
2022/09/20 07:20:08;;;;;;;;;;;;;;;21.23;54.93;99656.41;7302081;19;129112;-37
2022/09/20 07:22:33;;;;;;;;;;;;;;;21.31;55.46;99679.25;7301658;19;129087;-37
2022/09/20 07:25:01;;;;;;;;;;;;;;;21.32;55.69;99686.94;7306978;19;131214;-37
2022/09/20 07:27:26;;;;;;;;;;;;;;;21.35;56.30;99686.69;7305217;19;129442;-38
2022/09/20 07:29:51;;;;;;;;;;;;;;;21.35;56.17;99686.69;7305198;19;129857;-37
2022/09/20 07:32:17;;;;;;;;;;;;;;;21.33;55.48;99686.00;7308499;19;128946;-37
2022/09/20 07:34:42;;;;;;;;;;;;;;;21.29;55.71;99691.63;7316608;19;130501;-38
2022/09/20 07:37:07;;;;;;;;;;;;;;;21.27;56.00;99694.38;7317027;19;129599;-37
2022/09/20 07:39:32;;;;;;;;;;;;;;;21.26;55.71;99703.19;7318059;19;128959;-37
2022/09/20 07:41:57;;;;;;;;;;;;;;;21.27;55.96;99699.59;7308970;19;130467;-38
2022/09/20 07:44:26;;;;;;;;;;;;;;;21.27;56.23;99709.25;7307266;19;131208;-37
2022/09/20 07:46:53;;;;;;;;;;;;;;;21.20;55.72;99695.91;7308096;19;131302;-38
2022/09/20 07:49:18;;;;;;;;;;;;;;;21.32;56.19;99704.44;7308047;19;129682;-38
2022/09/20 07:51:44;;;;;;;;;;;;;;;21.30;56.35;99709.81;7308167;19;131629;-37
2022/09/20 07:54:09;;;;;;;;;;;;;;;21.32;55.72;99707.88;7307580;19;129829;-38
2022/09/20 07:56:35;;;;;;;;;;;;;;;21.25;55.64;99717.25;7308537;19;129062;-36
2022/09/20 07:59:00;;;;;;;;;;;;;;;21.14;55.66;99701.63;7307677;19;130373;-38
2022/09/20 08:01:26;;;;;;;;;;;;;;;21.25;55.76;99717.25;7307073;19;132286;-37
2022/09/20 08:03:51;;;;;;;;;;;;;;;21.26;56.27;99718.03;7310361;19;131355;-37
2022/09/20 08:06:17;;;;;;;;;;;;;;;21.23;56.06;99720.94;7316399;19;129149;-37
2022/09/20 08:08:43;;;;;;;;;;;;;;;21.22;55.31;99722.72;7317635;19;129025;-37
2022/09/20 08:11:15;;;;;;;;;;;;;;;21.24;55.31;99726.03;7315083;19;129178;-37
2022/09/20 08:13:42;;;;;;;;;;;;;;;21.23;56.11;99720.94;7315329;19;130787;-38
2022/09/20 08:16:09;;;;;;;;;;;;;;;21.20;55.46;99722.03;7316225;19;130242;-37
2022/09/20 08:18:34;;;;;;;;;;;;;;;21.22;56.45;99721.91;7312491;19;130838;-38
2022/09/20 08:21:06;;;;;;;;;;;;;;;21.24;56.11;99726.03;7305353;19;129948;-37
2022/09/20 08:23:35;;;;;;;;;;;;;;;21.21;55.35;99728.91;7306997;19;131009;-37
2022/09/20 08:26:01;;;;;;;;;;;;;;;21.23;55.57;99732.22;7306228;19;129524;-37
2022/09/20 08:28:27;;;;;;;;;;;;;;;21.17;55.84;99716.25;7306756;19;129645;-37
2022/09/20 08:30:52;;;;;;;;;;;;;;;21.22;55.62;99727.13;7306179;19;130046;-37
2022/09/20 08:33:17;;;;;;;;;;;;;;;21.14;55.82;99722.56;7306032;19;130526;-37
2022/09/20 08:35:42;;;;;;;;;;;;;;;21.19;55.61;99733.44;7306453;19;130354;-38
2022/09/20 08:38:08;;;;;;;;;;;;;;;21.16;55.67;99738.09;7308581;19;130514;-37
2022/09/20 08:40:34;;;;;;;;;;;;;;;21.21;55.38;99731.53;7315146;19;129528;-38
2022/09/20 08:42:59;;;;;;;;;;;;;;;21.21;55.67;99746.38;7315735;19;130321;-38
2022/09/20 08:45:25;;;;;;;;;;;;;;;21.18;56.38;99742.25;7305772;19;130159;-37
2022/09/20 08:47:53;;;;;;;;;;;;;;;21.18;56.02;99742.25;7306037;19;130755;-37
2022/09/20 08:50:19;;;;;;;;;;;;;;;21.15;55.50;99747.75;7306427;19;130304;-38
2022/09/20 08:52:46;;;;;;;;;;;;;;;21.15;55.49;99742.53;7305975;19;129602;-38
2022/09/20 08:55:17;;;;;;;;;;;;;;;21.17;55.42;99745.00;7305439;19;130709;-38
2022/09/20 08:57:43;;;;;;;;;;;;;;;21.20;55.11;99750.81;7309444;19;129140;-37
2022/09/20 09:00:19;;;;;;;;;;;;;;;21.19;55.52;99748.31;7315784;19;129287;-38
2022/09/20 09:02:44;;;;;;;;;;;;;;;21.16;55.20;99743.34;7313909;19;129185;-38
2022/09/20 09:05:30;;;;;;;;;;;;;;;21.13;56.03;99754.91;7312131;19;129553;-37
2022/09/20 09:07:56;;;;;;;;;;;;;;;21.16;55.93;99748.56;7307648;19;129099;-37
2022/09/20 09:10:21;;;;;;;;;;;;;;;21.17;55.85;99758.09;7312207;19;130770;-37
2022/09/20 09:12:47;;;;;;;;;;;;;;;21.08;56.41;99736.16;7308891;19;131081;-38
2022/09/20 09:15:22;;;;;;;;;;;;;;;21.14;55.70;99753.13;7305300;19;131535;-38
2022/09/20 09:17:47;;;;;;;;;;;;;;;21.05;55.60;99731.22;7306825;19;131111;-38
2022/09/20 09:20:13;;;;;;;;;;;;;;;21.10;55.22;99744.72;7304897;19;131134;-38
2022/09/20 09:22:39;;;;;;;;;;;;;;;21.10;56.07;99747.31;7305985;19;131070;-37
2022/09/20 09:25:15;;;;;;;;;;;;;;;20.98;55.91;99730.09;7305056;19;130961;-38
2022/09/20 09:27:59;;;;;;;;;;;;;;;21.09;55.86;99743.03;7305891;19;129692;-37
2022/09/20 09:30:26;;;;;;;;;;;;;;;21.13;56.27;99744.44;7313365;19;130686;-37
2022/09/20 09:32:52;;;;;;;;;;;;;;;21.11;56.06;99742.91;7308921;19;131055;-37
2022/09/20 09:35:29;;;;;;;;;;;;;;;21.12;56.56;99747.19;7304280;19;130035;-37
2022/09/20 09:37:56;;;;;;;;;;;;;;;21.08;56.00;99741.41;7311760;19;129564;-37
2022/09/20 09:40:22;;;;;;;;;;;;;;;21.11;55.01;99745.53;7313184;19;129360;-37
2022/09/20 09:43:07;;;;;;;;;;;;;;;21.01;55.86;99750.72;7304631;19;131106;-38
2022/09/20 09:45:37;;;;;;;;;;;;;;;21.03;56.29;99754.03;7303930;19;130517;-37
2022/09/20 09:48:16;;;;;;;;;;;;;;;21.06;56.51;99756.38;7302579;19;129887;-37
2022/09/20 09:50:41;;;;;;;;;;;;;;;21.06;55.65;99759.00;7304733;19;130855;-37
2022/09/20 09:53:12;;;;;;;;;;;;;;;21.04;56.82;99760.09;7310159;19;130719;-37
2022/09/20 09:55:52;;;;;;;;;;;;;;;21.06;55.90;99759.00;7310567;19;129094;-37
2022/09/20 09:58:21;;;;;;;;;;;;;;;21.01;55.70;99750.72;7304255;19;132142;-38
2022/09/20 10:00:47;;;;;;;;;;;;;;;21.06;55.63;99759.00;7303312;19;130247;-38
2022/09/20 10:03:21;;;;;;;;;;;;;;;21.05;56.08;99762.59;7312633;19;129541;-37
2022/09/20 10:06:05;;;;;;;;;;;;;;;21.02;55.33;99762.84;7302824;19;130104;-38
2022/09/20 10:08:42;;;;;;;;;;;;;;;20.94;56.22;99746.94;7313854;19;129622;-37
2022/09/20 10:11:11;;;;;;;;;;;;;;;21.02;55.62;99762.84;7312051;19;130327;-37
2022/09/20 10:13:42;;;;;;;;;;;;;;;20.93;56.30;99753.13;7307332;19;130245;-37
2022/09/20 10:16:08;;;;;;;;;;;;;;;20.97;55.91;99765.03;7312015;19;129642;-37
2022/09/20 10:18:47;;;;;;;;;;;;;;;20.94;55.75;99759.19;7305141;19;129162;-38
2022/09/20 10:21:16;;;;;;;;;;;;;;;21.00;56.00;99772.59;7303163;19;130712;-37
2022/09/20 10:24:00;;;;;;;;;;;;;;;21.02;55.69;99765.47;7302696;19;130418;-37
2022/09/20 10:26:44;;;;;;;;;;;;;;;20.99;55.85;99776.16;7302988;19;130319;-38
2022/09/20 10:29:09;;;;;;;;;;;;;;;20.89;55.71;99756.16;7303178;19;131206;-38
2022/09/20 10:32:03;;;;;;;;;;;;;;;21.02;55.87;99777.69;7301098;19;131327;-38
2022/09/20 10:34:38;;;;;;;;;;;;;;;20.98;55.71;99777.13;7301998;19;131008;-38
2022/09/20 10:37:12;;;;;;;;;;;;;;;20.99;55.59;99777.97;7302886;19;129529;-37
2022/09/20 10:39:38;;;;;;;;;;;;;;;21.00;55.79;99780.44;7303484;19;129678;-37
2022/09/20 10:45:23;;;;;;;;;;;;;;;20.98;55.84;99786.75;7304936;19;131113;-37
2022/09/20 10:47:55;;;;;;;;;;;;;;;20.96;55.83;99786.84;7303348;19;130919;-37
2022/09/20 10:50:28;;;;;;;;;;;;;;;20.98;55.92;99784.97;7313138;19;129317;-38
2022/09/20 10:52:59;;;;;;;;;;;;;;;20.99;55.12;99791.03;7302998;19;129741;-38
2022/09/20 10:55:24;;;;;;;;;;;;;;;20.90;55.65;99781.31;7302523;19;130591;-38
2022/09/20 10:57:49;;;;;;;;;;;;;;;20.97;55.09;99785.94;7303014;19;129262;-38
2022/09/20 11:00:20;;;;;;;;;;;;;;;20.94;56.11;99778.31;7302172;19;131027;-37
2022/09/20 11:03:04;;;;;;;;;;;;;;;20.98;56.13;99777.13;7300332;19;131436;-38
2022/09/20 11:05:39;;;;;;;;;;;;;;;20.95;56.03;99781.75;7300531;19;129905;-37
2022/09/20 11:08:21;;;;;;;;;;;;;;;20.94;55.69;99782.72;7304924;19;129965;-38
2022/09/20 11:10:53;;;;;;;;;;;;;;;20.87;56.01;99777.19;7308448;19;130053;-37
2022/09/20 11:13:36;;;;;;;;;;;;;;;20.91;55.87;99786.41;7308822;19;130637;-38
2022/09/20 11:16:04;;;;;;;;;;;;;;;20.94;55.77;99780.91;7309018;19;129487;-38
2022/09/20 11:18:40;;;;;;;;;;;;;;;20.99;55.40;99785.81;7309043;19;129611;-37
2022/09/20 11:21:26;;;;;;;;;;;;;;;20.92;55.95;99767.19;7309507;19;131175;-37
2022/09/20 11:23:57;;;;;;;;;;;;;;;21.02;55.48;99777.69;7307376;19;130053;-37
2022/09/20 11:26:31;;;;;;;;;;;;;;;20.97;55.39;99785.06;7309130;19;130163;-37
2022/09/20 11:29:11;;;;;;;;;;;;;;;20.99;55.67;99784.00;7309458;19;130284;-37
2022/09/20 11:31:42;;;;;;;;;;;;;;;21.00;55.97;99785.69;7308699;19;129501;-37
2022/09/20 11:34:21;;;;;;;;;;;;;;;21.01;55.65;99782.09;7318635;19;129520;-38
2022/09/20 11:36:51;;;;;;;;;;;;;;;20.89;54.89;99777.88;7317953;19;129468;-37
2022/09/20 11:39:21;;;;;;;;;;;;;;;20.98;55.49;99786.75;7317907;19;129512;-37
2022/09/20 11:41:48;;;;;;;;;;;;;;;21.00;55.88;99785.69;7315292;19;129421;-38
2022/09/20 11:44:15;;;;;;;;;;;;;;;20.99;54.96;99783.19;7308260;19;131502;-37
2022/09/20 11:46:46;;;;;;;;;;;;;;;20.87;55.06;99779.81;7308265;19;129698;-37
2022/09/20 11:49:18;;;;;;;;;;;;;;;20.85;54.57;99784.31;7308523;19;130177;-37
2022/09/20 11:52:02;;;;;;;;;;;;;;;20.88;55.45;99781.44;7305146;19;131311;-38
2022/09/20 11:54:34;;;;;;;;;;;;;;;20.80;55.32;99762.16;7305521;19;130129;-38
2022/09/20 11:56:59;;;;;;;;;;;;;;;20.96;55.85;99781.63;7307557;19;130665;-38
2022/09/20 11:59:32;;;;;;;;;;;;;;;20.93;55.11;99774.03;7305642;19;130050;-37
2022/09/20 12:02:00;;;;;;;;;;;;;;;20.90;55.37;99774.31;7308660;19;129539;-37
2022/09/20 12:04:28;;;;;;;;;;;;;;;20.92;55.65;99772.41;7317354;19;131241;-37
2022/09/20 12:07:02;;;;;;;;;;;;;;;20.86;55.56;99759.84;7316085;19;130173;-37
2022/09/20 12:09:29;;;;;;;;;;;;;;;20.97;54.94;99775.47;7316387;19;128870;-37
2022/09/20 12:11:55;;;;;;;;;;;;;;;20.95;55.21;99776.53;7309928;19;129092;-37
2022/09/20 12:14:20;;;;;;;;;;;;;;;20.95;54.81;99777.38;7307325;19;130427;-38
2022/09/20 12:16:46;;;;;;;;;;;;;;;20.97;55.37;99774.63;7307059;19;130961;-37
2022/09/20 12:19:13;;;;;;;;;;;;;;;20.98;55.00;99771.91;7305986;19;129082;-38
2022/09/20 12:21:57;;;;;;;;;;;;;;;20.95;55.00;99769.53;7307670;19;129644;-38
2022/09/20 12:24:23;;;;;;;;;;;;;;;20.91;54.96;99775.97;7305430;19;131003;-38
2022/09/20 12:26:49;;;;;;;;;;;;;;;20.89;55.71;99764.00;7307339;19;133303;-37
2022/09/20 12:29:24;;;;;;;;;;;;;;;20.97;54.99;99769.38;7308095;19;130475;-38
2022/09/20 12:31:50;;;;;;;;;;;;;;;20.97;55.17;99762.41;7308432;19;130396;-38
2022/09/20 12:34:15;;;;;;;;;;;;;;;21.01;55.02;99760.34;7303061;19;129927;-37
2022/09/20 12:36:53;;;;;;;;;;;;;;;20.98;54.97;99761.44;7306670;19;130406;-38
2022/09/20 12:39:21;;;;;;;;;;;;;;;21.02;55.24;99762.84;7306606;19;130623;-37
2022/09/20 12:41:51;;;;;;;;;;;;;;;20.94;55.43;99756.59;7303773;19;130406;-38
2022/09/20 12:44:25;;;;;;;;;;;;;;;20.94;54.89;99765.22;7303710;19;131204;-38
2022/09/20 12:46:55;;;;;;;;;;;;;;;20.96;54.84;99763.31;7305542;19;131425;-39
2022/09/20 12:55:25;;;;;;;;;;;;;;;20.98;54.55;99760.59;7314143;19;129341;-38
2022/09/20 12:58:01;;;;;;;;;;;;;;;20.97;55.41;99756.31;7305003;19;132328;-37
2022/09/20 13:00:39;;;;;;;;;;;;;;;20.98;55.12;99753.59;7302767;19;130377;-38
2022/09/20 13:03:13;;;;;;;;;;;;;;;21.00;54.85;99766.53;7304410;19;129195;-38
2022/09/20 13:05:40;;;;;;;;;;;;;;;20.99;55.37;99763.09;7304289;19;130641;-38
2022/09/20 13:08:12;;;;;;;;;;;;;;;20.95;55.14;99777.38;7302144;19;131058;-37
2022/09/20 13:10:43;;;;;;;;;;;;;;;20.95;54.80;99771.28;7310508;19;130219;-38
2022/09/20 13:13:19;;;;;;;;;;;;;;;20.96;55.02;99772.97;7304418;19;129747;-38
2022/09/20 13:15:49;;;;;;;;;;;;;;;21.01;54.73;99771.63;7304572;19;131652;-37